Time;durP1;ratioP1;P1;durP2;ratioP2;P2;SDS_P1;SDS_P2;PMS_P1;PMS_P2;Temp;Humidity;BMP_temperature;BMP_pressure;BME280_temperature;BME280_humidity;BME280_pressure;Samples;Min_cycle;Max_cycle;Signal;HPM_P1;HPM_P2
2022/06/14 00:01:22;;;;;;;0.20;0.20;;;11.60;99.90;;;;;;4987583;28;20652;-85
2022/06/14 00:03:48;;;;;;;0.20;0.20;;;11.70;99.90;;;;;;4984307;28;20207;-84
2022/06/14 00:06:17;;;;;;;0.20;0.20;;;11.70;99.90;;;;;;5054640;28;20657;-84
2022/06/14 00:08:43;;;;;;;0.20;0.20;;;11.70;99.90;;;;;;4989011;28;20832;-85
2022/06/14 00:11:21;;;;;;;0.10;0.10;;;11.90;99.90;;;;;;4985675;28;20497;-84
2022/06/14 00:13:48;;;;;;;0.20;0.20;;;11.90;99.90;;;;;;4988943;28;20484;-86
2022/06/14 00:16:14;;;;;;;0.10;0.10;;;11.90;99.90;;;;;;4988282;28;20547;-86
2022/06/14 00:18:39;;;;;;;0.17;0.17;;;12.00;99.90;;;;;;4986608;28;20452;-85
2022/06/14 00:21:06;;;;;;;0.10;0.10;;;12.00;99.90;;;;;;4988391;28;20448;-85
2022/06/14 00:23:31;;;;;;;0.20;0.20;;;12.00;99.90;;;;;;5056121;28;20208;-86
2022/06/14 00:25:59;;;;;;;0.20;0.20;;;12.00;99.90;;;;;;4988168;28;20440;-85
2022/06/14 00:28:31;;;;;;;0.20;0.20;;;11.90;99.90;;;;;;4987139;28;20205;-85
2022/06/14 00:31:00;;;;;;;0.10;0.10;;;11.90;99.90;;;;;;4986114;28;20579;-85
2022/06/14 00:33:26;;;;;;;0.20;0.20;;;12.00;99.90;;;;;;5052268;28;20488;-85
2022/06/14 00:36:06;;;;;;;0.20;0.20;;;12.00;99.90;;;;;;4984438;28;20448;-86
2022/06/14 00:38:33;;;;;;;0.20;0.20;;;12.00;99.90;;;;;;4983738;28;20185;-85
2022/06/14 00:41:00;;;;;;;0.10;0.10;;;12.10;99.90;;;;;;5051937;28;20984;-85
2022/06/14 00:43:27;;;;;;;0.20;0.20;;;12.10;99.90;;;;;;4987730;28;20448;-86
2022/06/14 00:46:16;;;;;;;0.10;0.10;;;12.10;99.90;;;;;;4985586;28;20475;-85
2022/06/14 00:48:45;;;;;;;0.10;0.10;;;12.10;99.90;;;;;;4990092;28;20444;-85
2022/06/14 00:51:19;;;;;;;0.20;0.20;;;12.20;99.90;;;;;;5053882;28;20452;-85
2022/06/14 00:54:13;;;;;;;0.10;0.10;;;12.10;99.90;;;;;;4997903;28;20479;-85
2022/06/14 00:56:47;;;;;;;0.20;0.20;;;12.20;99.90;;;;;;4986618;28;20492;-85
2022/06/14 00:59:28;;;;;;;0.10;0.10;;;12.20;99.90;;;;;;4984645;28;20520;-86
2022/06/14 01:02:01;;;;;;;0.20;0.20;;;12.10;99.90;;;;;;5051066;28;20444;-85
2022/06/14 01:04:29;;;;;;;0.20;0.20;;;12.10;99.90;;;;;;5057295;28;20500;-85
2022/06/14 01:07:01;;;;;;;0.10;0.10;;;12.20;99.90;;;;;;4987421;28;20448;-85
2022/06/14 01:09:45;;;;;;;0.10;0.10;;;12.20;99.90;;;;;;4979476;28;20437;-85
2022/06/14 01:12:14;;;;;;;0.10;0.10;;;12.20;99.90;;;;;;4986779;28;20886;-85
2022/06/14 01:14:47;;;;;;;0.10;0.10;;;12.20;99.90;;;;;;5054184;28;20640;-86
2022/06/14 01:17:14;;;;;;;0.10;0.10;;;12.10;99.90;;;;;;4979034;28;20472;-85
2022/06/14 01:19:40;;;;;;;0.10;0.10;;;12.10;99.90;;;;;;5050900;28;20444;-84
2022/06/14 01:22:06;;;;;;;0.10;0.10;;;12.10;99.90;;;;;;4989025;28;20436;-85
2022/06/14 01:24:33;;;;;;;0.13;0.13;;;12.10;99.90;;;;;;4984050;28;20485;-85
2022/06/14 01:27:00;;;;;;;0.10;0.10;;;12.10;99.90;;;;;;4986918;28;20246;-85
2022/06/14 01:29:26;;;;;;;0.20;0.20;;;12.10;99.90;;;;;;4984372;28;20473;-86
2022/06/14 01:31:58;;;;;;;0.20;0.20;;;12.10;99.90;;;;;;4979411;28;20982;-84
2022/06/14 01:34:25;;;;;;;0.10;0.10;;;12.10;99.90;;;;;;4985484;28;20492;-85
2022/06/14 01:36:51;;;;;;;0.20;0.20;;;12.10;99.90;;;;;;4987098;28;20452;-85
2022/06/14 01:39:18;;;;;;;0.20;0.20;;;12.10;99.90;;;;;;4987366;28;20460;-85
2022/06/14 01:41:49;;;;;;;0.10;0.10;;;12.10;99.90;;;;;;4986667;28;20467;-85
2022/06/14 01:44:36;;;;;;;0.10;0.10;;;12.00;99.90;;;;;;4986347;28;20539;-85
2022/06/14 01:47:29;;;;;;;0.10;0.10;;;12.00;99.90;;;;;;4986020;28;20463;-84
2022/06/14 01:53:11;;;;;;;0.17;0.17;;;12.00;99.90;;;;;;4984462;28;20483;-85
2022/06/14 01:56:14;;;;;;;0.20;0.20;;;12.00;99.90;;;;;;4973231;28;20439;-85
2022/06/14 01:59:26;;;;;;;0.10;0.10;;;11.90;99.90;;;;;;4985721;28;20475;-85
2022/06/14 02:02:01;;;;;;;0.10;0.10;;;12.00;99.90;;;;;;4987038;28;20448;-84
2022/06/14 02:04:39;;;;;;;0.10;0.10;;;12.00;99.90;;;;;;4984318;28;20505;-85
2022/06/14 02:07:30;;;;;;;0.10;0.10;;;12.00;99.90;;;;;;5065213;28;20443;-85
2022/06/14 02:10:12;;;;;;;0.20;0.20;;;12.00;99.90;;;;;;4984619;28;20448;-85
2022/06/14 02:12:45;;;;;;;0.20;0.20;;;12.00;99.90;;;;;;4983500;28;20475;-85
2022/06/14 02:15:30;;;;;;;0.10;0.10;;;12.00;99.90;;;;;;5014728;28;20460;-85
2022/06/14 02:18:20;;;;;;;0.20;0.20;;;12.00;99.90;;;;;;4981641;28;20470;-84
2022/06/14 02:20:55;;;;;;;0.10;0.10;;;12.00;99.90;;;;;;4984742;28;20536;-85
2022/06/14 02:23:23;;;;;;;0.17;0.17;;;11.90;99.90;;;;;;4983108;28;20458;-85
2022/06/14 02:25:59;;;;;;;0.20;0.20;;;12.00;99.90;;;;;;4987518;28;20898;-85
2022/06/14 02:28:44;;;;;;;0.20;0.20;;;12.00;99.90;;;;;;4985735;28;20451;-85
2022/06/14 02:31:20;;;;;;;0.10;0.10;;;12.00;99.90;;;;;;4985304;28;20458;-85
2022/06/14 02:33:49;;;;;;;0.10;0.10;;;12.00;99.90;;;;;;4981232;28;20523;-85
2022/06/14 02:36:25;;;;;;;0.20;0.20;;;12.00;99.90;;;;;;4986848;28;20452;-85
2022/06/14 02:38:59;;;;;;;0.10;0.10;;;12.00;99.90;;;;;;4983021;28;20513;-84
2022/06/14 02:41:49;;;;;;;0.10;0.10;;;11.90;99.90;;;;;;5053592;28;20445;-85
2022/06/14 02:44:23;;;;;;;0.10;0.10;;;12.00;99.90;;;;;;5068618;28;20830;-84
2022/06/14 02:46:55;;;;;;;0.10;0.10;;;12.00;99.90;;;;;;4984208;28;20440;-84
2022/06/14 02:49:32;;;;;;;0.20;0.20;;;12.00;99.90;;;;;;4976374;28;20589;-85
2022/06/14 02:52:18;;;;;;;0.10;0.10;;;11.90;99.90;;;;;;4987141;28;20476;-84
2022/06/14 02:54:55;;;;;;;0.10;0.10;;;12.00;99.90;;;;;;4985387;28;20570;-84
2022/06/14 02:57:46;;;;;;;0.20;0.20;;;11.90;99.90;;;;;;5044962;28;20495;-85
2022/06/14 03:00:14;;;;;;;0.20;0.20;;;11.90;99.90;;;;;;4979365;28;20495;-86
2022/06/14 03:03:09;;;;;;;0.10;0.10;;;11.80;99.90;;;;;;4986581;28;20463;-85
2022/06/14 03:05:55;;;;;;;0.20;0.20;;;11.90;99.90;;;;;;4981095;28;20452;-85
2022/06/14 03:08:31;;;;;;;0.20;0.20;;;11.80;99.90;;;;;;4977051;28;20478;-85
2022/06/14 03:11:10;;;;;;;0.10;0.10;;;11.90;99.90;;;;;;4970620;28;20428;-85
2022/06/14 03:13:55;;;;;;;0.10;0.10;;;11.90;99.90;;;;;;5023576;28;20487;-84
2022/06/14 03:16:47;;;;;;;0.13;0.13;;;11.80;99.90;;;;;;4985862;28;20441;-85
2022/06/14 03:19:25;;;;;;;0.10;0.10;;;11.80;99.90;;;;;;4985081;28;20483;-85
2022/06/14 03:22:02;;;;;;;0.20;0.20;;;11.80;99.90;;;;;;4980246;28;20482;-86
2022/06/14 03:24:39;;;;;;;0.10;0.10;;;11.80;99.90;;;;;;4984351;28;20440;-85
2022/06/14 03:27:28;;;;;;;0.10;0.10;;;11.90;99.90;;;;;;4985708;28;20448;-85
2022/06/14 03:30:04;;;;;;;0.10;0.10;;;11.80;99.90;;;;;;4984845;28;20551;-85
2022/06/14 03:32:51;;;;;;;0.10;0.10;;;11.80;99.90;;;;;;4985724;28;20471;-85
2022/06/14 03:35:26;;;;;;;0.20;0.20;;;11.90;99.90;;;;;;4985980;28;20459;-86
2022/06/14 03:37:52;;;;;;;0.10;0.10;;;11.90;99.90;;;;;;5052545;28;20532;-85
2022/06/14 03:40:20;;;;;;;0.10;0.10;;;11.90;99.90;;;;;;4988111;28;20955;-85
2022/06/14 03:42:45;;;;;;;0.10;0.10;;;11.80;99.90;;;;;;4988019;28;20960;-85
2022/06/14 03:45:15;;;;;;;0.20;0.20;;;11.90;99.90;;;;;;5056358;28;20455;-85
2022/06/14 03:47:41;;;;;;;0.17;0.17;;;11.80;99.90;;;;;;4988279;28;20264;-85
2022/06/14 03:50:11;;;;;;;0.10;0.10;;;11.80;99.90;;;;;;4986593;28;20616;-84
2022/06/14 03:53:03;;;;;;;0.10;0.10;;;11.80;99.90;;;;;;4989040;28;20701;-85
2022/06/14 03:55:48;;;;;;;0.10;0.10;;;11.80;99.90;;;;;;4987093;28;20483;-85
2022/06/14 03:58:39;;;;;;;0.10;0.10;;;11.90;99.90;;;;;;4978205;28;20480;-85
2022/06/14 04:01:14;;;;;;;0.20;0.20;;;11.90;99.90;;;;;;5055216;28;21506;-86
2022/06/14 04:03:58;;;;;;;0.10;0.10;;;11.80;99.90;;;;;;5060688;28;20440;-85
2022/06/14 04:06:32;;;;;;;0.10;0.10;;;11.90;99.90;;;;;;4976609;28;20458;-85
2022/06/14 04:09:34;;;;;;;0.10;0.10;;;11.80;99.90;;;;;;4982279;28;20463;-85
2022/06/14 04:12:06;;;;;;;0.20;0.20;;;11.80;99.90;;;;;;5049792;28;20535;-85
2022/06/14 04:14:50;;;;;;;0.20;0.20;;;11.90;99.90;;;;;;4982839;28;20464;-84
2022/06/14 04:17:51;;;;;;;0.20;0.20;;;11.80;99.90;;;;;;4971622;28;21035;-84
2022/06/14 04:20:41;;;;;;;0.20;0.20;;;11.80;99.90;;;;;;4985333;28;20448;-85
2022/06/14 04:23:21;;;;;;;0.17;0.17;;;11.80;99.90;;;;;;4984581;28;20459;-84
2022/06/14 04:26:05;;;;;;;0.20;0.20;;;11.80;99.90;;;;;;4991667;28;20447;-85
2022/06/14 04:28:42;;;;;;;0.20;0.20;;;11.90;99.90;;;;;;4994012;28;20578;-85
2022/06/14 04:31:23;;;;;;;0.20;0.20;;;11.90;99.90;;;;;;4985896;28;20483;-84
2022/06/14 04:34:04;;;;;;;0.10;0.10;;;12.00;99.90;;;;;;4984388;28;20491;-85
2022/06/14 04:36:54;;;;;;;0.10;0.10;;;12.00;99.90;;;;;;4980881;28;20432;-85
2022/06/14 04:39:25;;;;;;;0.10;0.10;;;12.00;99.90;;;;;;4979436;28;20444;-85
2022/06/14 04:42:08;;;;;;;0.10;0.10;;;12.00;99.90;;;;;;4975406;28;20452;-86
2022/06/14 04:45:01;;;;;;;0.10;0.10;;;12.00;99.90;;;;;;4985795;28;21093;-85
2022/06/14 04:47:48;;;;;;;0.10;0.10;;;12.10;99.90;;;;;;4976028;28;20451;-85
2022/06/14 04:50:20;;;;;;;0.10;0.10;;;12.10;99.90;;;;;;4977854;28;20448;-86
2022/06/14 04:52:56;;;;;;;0.10;0.10;;;12.10;99.90;;;;;;4981351;28;22176;-85
2022/06/14 04:55:43;;;;;;;0.10;0.10;;;12.20;99.90;;;;;;4974904;28;21010;-85
2022/06/14 04:58:19;;;;;;;0.10;0.10;;;12.20;99.90;;;;;;5017819;28;20467;-85
2022/06/14 05:00:51;;;;;;;0.20;0.20;;;12.30;99.90;;;;;;4980945;28;20537;-85
2022/06/14 05:03:25;;;;;;;0.10;0.10;;;12.40;99.90;;;;;;4981183;28;20880;-85
2022/06/14 05:06:06;;;;;;;0.10;0.10;;;12.50;99.90;;;;;;5044924;28;20509;-85
2022/06/14 05:08:37;;;;;;;0.10;0.10;;;12.60;99.90;;;;;;4984359;28;20530;-84
2022/06/14 05:11:14;;;;;;;0.10;0.10;;;12.60;99.90;;;;;;4984888;28;20451;-85
2022/06/14 05:14:04;;;;;;;0.10;0.10;;;12.70;99.90;;;;;;5050201;28;20484;-84
2022/06/14 05:16:33;;;;;;;0.10;0.10;;;12.80;99.90;;;;;;4983471;28;20440;-85
2022/06/14 05:19:23;;;;;;;0.10;0.10;;;12.90;99.90;;;;;;4991100;28;21071;-84
2022/06/14 05:22:03;;;;;;;0.10;0.10;;;12.90;99.90;;;;;;5046146;28;20464;-85
2022/06/14 05:24:30;;;;;;;0.10;0.10;;;13.00;99.90;;;;;;4984698;28;21041;-85
2022/06/14 05:27:33;;;;;;;0.10;0.10;;;13.10;99.90;;;;;;5045570;28;20457;-85
2022/06/14 05:30:06;;;;;;;0.10;0.10;;;13.10;99.90;;;;;;4985776;28;20452;-85
2022/06/14 05:32:42;;;;;;;0.10;0.10;;;13.20;99.90;;;;;;4985986;28;20529;-84
2022/06/14 05:35:16;;;;;;;0.10;0.10;;;13.20;99.90;;;;;;4977226;28;20467;-86
2022/06/14 05:38:03;;;;;;;0.10;0.10;;;13.40;99.90;;;;;;4983644;28;20454;-86
2022/06/14 05:40:41;;;;;;;0.10;0.10;;;13.30;99.90;;;;;;4972937;28;20960;-87
2022/06/14 05:43:30;;;;;;;0.10;0.10;;;13.50;99.90;;;;;;4969553;28;20914;-89
2022/06/14 05:46:03;;;;;;;0.10;0.10;;;13.50;99.90;;;;;;4983392;28;20517;-86
2022/06/14 05:48:35;;;;;;;0.10;0.10;;;13.60;99.90;;;;;;4987212;28;20951;-87
2022/06/14 05:51:04;;;;;;;0.10;0.10;;;13.60;99.90;;;;;;4977483;28;20453;-86
2022/06/14 05:53:40;;;;;;;0.10;0.10;;;13.70;99.90;;;;;;5045572;28;20578;-86
2022/06/14 05:56:15;;;;;;;0.10;0.10;;;13.70;99.90;;;;;;4980137;28;20436;-87
2022/06/14 05:58:55;;;;;;;0.10;0.10;;;13.70;99.90;;;;;;4985938;28;20535;-86
2022/06/14 06:01:31;;;;;;;0.10;0.10;;;13.90;99.90;;;;;;4987428;28;20459;-87
2022/06/14 06:04:07;;;;;;;0.10;0.10;;;13.90;99.90;;;;;;4983628;28;20448;-87
2022/06/14 06:06:46;;;;;;;0.10;0.10;;;14.10;99.90;;;;;;4983896;28;20491;-86
2022/06/14 06:09:25;;;;;;;0.10;0.10;;;14.20;99.90;;;;;;4982958;28;21920;-85
2022/06/14 06:11:56;;;;;;;0.10;0.10;;;14.30;99.90;;;;;;4988635;28;20432;-88
2022/06/14 06:14:32;;;;;;;0.10;0.10;;;14.40;99.90;;;;;;5054053;28;20587;-85
2022/06/14 06:17:09;;;;;;;0.10;0.10;;;14.40;99.90;;;;;;4985888;28;21052;-86
2022/06/14 06:19:59;;;;;;;0.10;0.10;;;14.50;99.90;;;;;;5050190;28;20583;-86
2022/06/14 06:22:38;;;;;;;0.10;0.10;;;14.60;99.90;;;;;;5024050;28;20437;-87
2022/06/14 06:25:21;;;;;;;0.10;0.10;;;14.60;99.90;;;;;;4979386;28;20551;-85
2022/06/14 06:27:52;;;;;;;0.10;0.10;;;14.70;99.90;;;;;;4985829;28;20523;-88
2022/06/14 06:30:27;;;;;;;0.10;0.10;;;14.70;99.90;;;;;;5052467;28;20487;-88
2022/06/14 06:32:55;;;;;;;0.10;0.10;;;14.80;99.90;;;;;;4968179;28;20488;-87
2022/06/14 06:35:26;;;;;;;0.10;0.10;;;14.80;99.90;;;;;;4980364;28;20444;-85
2022/06/14 06:38:05;;;;;;;0.10;0.10;;;14.60;99.90;;;;;;4976355;28;20467;-84
2022/06/14 06:40:32;;;;;;;0.10;0.10;;;14.60;99.90;;;;;;4982702;28;20454;-86
2022/06/14 06:43:02;;;;;;;0.10;0.10;;;14.80;99.90;;;;;;4982390;28;20452;-86
2022/06/14 06:45:31;;;;;;;0.10;0.10;;;14.80;99.90;;;;;;4985394;28;20636;-87
2022/06/14 06:48:09;;;;;;;0.10;0.10;;;14.80;99.90;;;;;;4984423;28;20505;-87
2022/06/14 06:50:42;;;;;;;0.10;0.10;;;14.90;99.90;;;;;;4988120;28;20593;-88
2022/06/14 06:53:18;;;;;;;0.10;0.10;;;15.10;99.90;;;;;;4984842;28;20512;-88
2022/06/14 06:56:23;;;;;;;0.10;0.10;;;15.10;99.90;;;;;;4983177;28;20845;-89
2022/06/14 06:58:52;;;;;;;0.10;0.10;;;14.90;99.90;;;;;;5006289;28;20460;-89
2022/06/14 07:01:30;;;;;;;0.10;0.10;;;15.10;99.90;;;;;;4982508;28;20538;-87
2022/06/14 07:04:15;;;;;;;0.10;0.10;;;15.00;99.90;;;;;;4983141;28;20452;-87
2022/06/14 07:06:50;;;;;;;0.10;0.10;;;14.90;99.90;;;;;;5053812;28;20440;-86
2022/06/14 07:09:21;;;;;;;0.10;0.10;;;15.00;99.90;;;;;;4984042;28;20447;-88
2022/06/14 07:11:54;;;;;;;0.10;0.10;;;15.20;99.90;;;;;;5048954;28;20841;-90
2022/06/14 07:14:31;;;;;;;0.10;0.10;;;15.20;99.90;;;;;;5038248;28;20478;-88
2022/06/14 07:17:04;;;;;;;0.10;0.10;;;15.20;99.90;;;;;;5020400;28;20451;-88
2022/06/14 07:19:52;;;;;;;0.10;0.10;;;15.20;99.90;;;;;;4987985;28;20455;-89
2022/06/14 07:22:25;;;;;;;0.10;0.10;;;15.20;99.90;;;;;;4996553;28;20448;-88
2022/06/14 07:25:08;;;;;;;0.10;0.10;;;15.00;99.90;;;;;;4990282;28;20838;-88
2022/06/14 07:27:41;;;;;;;0.10;0.10;;;15.10;99.90;;;;;;4992559;28;20443;-87
2022/06/14 07:30:12;;;;;;;0.10;0.10;;;15.30;99.90;;;;;;5006126;28;20455;-89
2022/06/14 07:32:46;;;;;;;0.10;0.10;;;15.50;99.90;;;;;;4977452;28;20481;-88
2022/06/14 07:35:14;;;;;;;0.10;0.10;;;15.50;99.90;;;;;;5009134;28;20448;-88
2022/06/14 07:37:59;;;;;;;0.10;0.10;;;15.60;99.90;;;;;;5009577;28;20432;-89
2022/06/14 07:40:44;;;;;;;0.10;0.10;;;15.60;99.90;;;;;;4976632;28;20444;-86
2022/06/14 07:43:28;;;;;;;0.10;0.10;;;15.70;99.90;;;;;;4979504;28;20459;-85
2022/06/14 07:45:58;;;;;;;0.10;0.10;;;15.80;99.90;;;;;;4989333;28;20448;-87
2022/06/14 07:48:32;;;;;;;0.10;0.10;;;16.00;99.90;;;;;;4987281;28;20452;-85
2022/06/14 07:51:02;;;;;;;0.10;0.10;;;15.90;99.90;;;;;;5054871;28;20447;-85
2022/06/14 07:53:39;;;;;;;0.10;0.10;;;16.20;99.90;;;;;;5025841;28;20489;-88
2022/06/14 07:56:12;;;;;;;0.10;0.10;;;15.90;99.90;;;;;;4978917;28;20475;-86
2022/06/14 07:58:41;;;;;;;0.10;0.10;;;16.10;99.90;;;;;;4983231;28;20444;-84
2022/06/14 08:01:14;;;;;;;0.10;0.10;;;16.20;99.90;;;;;;5042363;28;20448;-85
2022/06/14 08:03:49;;;;;;;0.10;0.10;;;16.40;99.90;;;;;;5047352;28;20553;-86
2022/06/14 08:06:28;;;;;;;0.10;0.10;;;16.70;99.90;;;;;;4990386;28;20428;-86
2022/06/14 08:09:14;;;;;;;0.10;0.10;;;16.80;99.90;;;;;;4987688;28;20455;-87
2022/06/14 08:11:54;;;;;;;0.10;0.10;;;16.80;99.90;;;;;;4979645;28;20454;-86
2022/06/14 08:14:45;;;;;;;0.10;0.10;;;16.70;99.90;;;;;;4987806;28;20495;-86
2022/06/14 08:17:19;;;;;;;0.10;0.10;;;16.60;99.90;;;;;;4984248;28;20503;-86
2022/06/14 08:19:55;;;;;;;0.10;0.10;;;17.00;99.90;;;;;;4989009;28;20456;-87
2022/06/14 08:22:42;;;;;;;0.10;0.10;;;16.90;99.90;;;;;;4988578;28;20959;-86
2022/06/14 08:25:14;;;;;;;0.10;0.10;;;16.60;99.90;;;;;;4980475;28;20508;-87
2022/06/14 08:27:57;;;;;;;0.10;0.10;;;16.70;99.90;;;;;;4987301;28;20448;-86
2022/06/14 08:30:28;;;;;;;0.10;0.10;;;16.80;99.90;;;;;;4974848;28;20448;-86
2022/06/14 08:33:07;;;;;;;0.10;0.10;;;17.00;99.90;;;;;;4986959;28;20490;-86
2022/06/14 08:35:39;;;;;;;0.10;0.10;;;17.00;99.90;;;;;;4978397;28;20448;-85
2022/06/14 08:38:11;;;;;;;0.10;0.10;;;16.70;99.90;;;;;;4982486;28;20440;-86
2022/06/14 08:41:09;;;;;;;0.10;0.10;;;17.10;99.90;;;;;;5052913;28;20547;-86
2022/06/14 08:43:43;;;;;;;0.10;0.10;;;17.40;99.90;;;;;;4987599;28;20456;-87
2022/06/14 08:46:34;;;;;;;0.10;0.10;;;17.50;99.90;;;;;;4978987;28;20960;-87
2022/06/14 08:49:30;;;;;;;0.10;0.10;;;18.10;99.90;;;;;;4983618;28;21007;-85
2022/06/14 08:52:21;;;;;;;0.10;0.10;;;18.50;99.90;;;;;;4971561;28;20963;-85
2022/06/14 08:55:06;;;;;;;0.10;0.00;;;18.30;99.90;;;;;;4997462;28;20468;-86
2022/06/14 08:57:54;;;;;;;0.10;0.10;;;17.90;99.90;;;;;;4985934;28;20939;-85
2022/06/14 09:00:40;;;;;;;0.10;0.10;;;17.90;99.90;;;;;;4982037;28;20476;-86
2022/06/14 09:03:26;;;;;;;0.10;0.10;;;18.10;99.90;;;;;;4985136;28;20452;-86
2022/06/14 09:06:02;;;;;;;0.10;0.10;;;18.70;99.90;;;;;;4986003;28;20952;-87
2022/06/14 09:08:44;;;;;;;0.10;0.00;;;18.70;99.90;;;;;;4981544;28;21291;-86
2022/06/14 09:11:37;;;;;;;0.10;0.00;;;18.30;99.90;;;;;;4984669;28;20446;-87
2022/06/14 09:14:50;;;;;;;0.10;0.10;;;18.30;99.90;;;;;;4978849;28;20484;-86
2022/06/14 09:17:43;;;;;;;0.10;0.00;;;18.40;99.90;;;;;;4976650;28;20446;-86
2022/06/14 09:20:24;;;;;;;0.10;0.00;;;18.50;99.90;;;;;;4978132;28;20444;-87
2022/06/14 09:23:17;;;;;;;0.10;0.10;;;18.20;99.90;;;;;;4986680;28;20440;-87
2022/06/14 09:26:16;;;;;;;0.10;0.10;;;17.50;99.90;;;;;;4985864;28;20444;-88
2022/06/14 09:28:41;;;;;;;0.10;0.10;;;17.40;99.90;;;;;;4985713;28;20450;-88
2022/06/14 09:31:43;;;;;;;0.10;0.10;;;17.50;99.90;;;;;;4988233;28;20457;-85
2022/06/14 09:34:40;;;;;;;0.10;0.10;;;17.70;99.90;;;;;;4999581;28;20227;-86
2022/06/14 09:37:20;;;;;;;0.10;0.10;;;17.30;99.90;;;;;;5038285;28;20532;-86
2022/06/14 09:40:07;;;;;;;0.10;0.10;;;17.20;99.90;;;;;;4984195;28;21275;-87
2022/06/14 09:42:59;;;;;;;0.10;0.00;;;17.20;99.90;;;;;;5051758;28;20460;-86
2022/06/14 09:46:01;;;;;;;0.10;0.10;;;17.20;99.90;;;;;;5029360;28;20945;-87
2022/06/14 09:49:04;;;;;;;0.10;0.10;;;17.10;99.90;;;;;;4981893;28;20440;-86
2022/06/14 09:51:38;;;;;;;0.10;0.10;;;16.80;99.90;;;;;;4977610;28;20456;-87
2022/06/14 09:54:28;;;;;;;0.10;0.10;;;16.60;99.90;;;;;;5009506;28;20520;-86
2022/06/14 09:57:16;;;;;;;0.10;0.10;;;16.50;99.90;;;;;;4983565;28;20475;-89
2022/06/14 10:00:13;;;;;;;0.10;0.10;;;16.50;99.90;;;;;;4983701;28;20464;-88
2022/06/14 10:03:04;;;;;;;0.10;0.10;;;16.70;99.90;;;;;;4988889;28;20480;-87
2022/06/14 10:05:46;;;;;;;0.10;0.10;;;16.60;99.90;;;;;;5046407;28;20520;-87
2022/06/14 10:08:31;;;;;;;0.10;0.10;;;16.80;99.90;;;;;;4983034;28;20494;-87
2022/06/14 10:11:08;;;;;;;0.10;0.10;;;16.60;99.90;;;;;;4985133;28;20448;-86
2022/06/14 10:13:52;;;;;;;0.10;0.10;;;16.70;99.90;;;;;;5055646;28;20487;-85
2022/06/14 10:16:44;;;;;;;0.10;0.10;;;16.90;99.90;;;;;;4976733;28;21977;-86
2022/06/14 10:19:31;;;;;;;0.10;0.10;;;16.90;99.90;;;;;;4979001;28;20517;-86
2022/06/14 10:22:19;;;;;;;0.10;0.10;;;16.80;99.90;;;;;;4977596;28;20452;-87
2022/06/14 10:24:54;;;;;;;0.10;0.10;;;16.70;99.90;;;;;;4985808;28;20862;-86
2022/06/14 10:30:57;;;;;;;0.10;0.10;;;16.60;99.90;;;;;;4972685;28;20441;-87
2022/06/14 10:33:33;;;;;;;0.10;0.10;;;16.50;99.90;;;;;;4981444;28;20537;-86
2022/06/14 10:36:18;;;;;;;0.10;0.10;;;16.50;99.90;;;;;;4981351;28;20456;-86
2022/06/14 10:39:28;;;;;;;0.10;0.10;;;16.30;99.90;;;;;;4974472;28;20467;-87
2022/06/14 10:42:43;;;;;;;0.10;0.10;;;16.30;99.90;;;;;;4980803;28;20564;-86
2022/06/14 10:45:21;;;;;;;0.10;0.10;;;16.20;99.90;;;;;;4994524;28;20448;-87
2022/06/14 10:48:17;;;;;;;0.10;0.10;;;16.40;99.90;;;;;;4985578;28;20451;-85
2022/06/14 10:50:42;;;;;;;0.10;0.10;;;16.70;99.90;;;;;;4987497;28;20447;-88
2022/06/14 10:53:14;;;;;;;0.10;0.10;;;16.90;99.90;;;;;;4990541;28;20475;-88
2022/06/14 10:55:47;;;;;;;0.10;0.10;;;17.30;99.90;;;;;;4989325;28;20192;-87
2022/06/14 10:58:34;;;;;;;0.10;0.10;;;17.60;99.90;;;;;;5058395;28;20947;-87
2022/06/14 11:01:25;;;;;;;0.10;0.10;;;17.70;99.90;;;;;;4989522;28;20460;-86
2022/06/14 11:03:53;;;;;;;0.10;0.10;;;17.80;99.90;;;;;;4986017;28;20444;-86
2022/06/14 11:06:42;;;;;;;0.10;0.10;;;18.30;99.90;;;;;;4986899;28;20448;-87
2022/06/14 11:09:20;;;;;;;0.10;0.00;;;18.50;99.90;;;;;;5001301;28;20443;-88
2022/06/14 11:12:10;;;;;;;0.10;0.00;;;18.50;99.90;;;;;;5072236;28;20442;-88
2022/06/14 11:14:58;;;;;;;0.10;0.10;;;18.70;99.90;;;;;;5001473;28;20553;-87
2022/06/14 11:17:51;;;;;;;0.10;0.10;;;18.50;99.90;;;;;;4986758;28;20460;-86
2022/06/14 11:20:32;;;;;;;0.10;0.10;;;18.80;99.90;;;;;;4986925;28;20526;-87
2022/06/14 11:23:12;;;;;;;0.10;0.10;;;19.10;99.90;;;;;;4989087;28;20436;-87
2022/06/14 11:25:53;;;;;;;0.10;0.00;;;19.70;99.90;;;;;;4987247;28;21088;-87
2022/06/14 11:28:27;;;;;;;0.10;0.10;;;19.60;99.90;;;;;;4990875;28;20974;-88
2022/06/14 11:31:26;;;;;;;0.10;0.00;;;19.70;99.90;;;;;;4989403;28;20467;-87
2022/06/14 11:34:10;;;;;;;0.10;0.00;;;19.60;99.90;;;;;;4984980;28;21057;-87
2022/06/14 11:37:14;;;;;;;0.10;0.00;;;20.20;99.90;;;;;;4989817;28;20446;-86
2022/06/14 11:39:42;;;;;;;0.10;0.00;;;20.80;99.90;;;;;;4970200;28;20500;-86
2022/06/14 11:42:24;;;;;;;0.10;0.00;;;21.80;99.90;;;;;;5004544;28;20444;-86
2022/06/14 11:44:57;;;;;;;0.10;0.00;;;20.70;99.90;;;;;;4989560;28;20447;-87
2022/06/14 11:47:33;;;;;;;0.10;0.00;;;20.90;99.90;;;;;;5035209;28;20475;-85
2022/06/14 11:50:48;;;;;;;0.10;0.07;;;20.90;99.90;;;;;;4985859;28;20534;-85
2022/06/14 11:53:51;;;;;;;0.10;0.00;;;22.10;99.90;;;;;;5017371;28;20515;-88
2022/06/14 11:56:29;;;;;;;0.10;0.00;;;20.70;99.90;;;;;;4986894;28;20952;-85
2022/06/14 11:59:14;;;;;;;0.10;0.00;;;20.80;99.90;;;;;;4980259;28;20472;-86
2022/06/14 12:02:06;;;;;;;0.10;0.00;;;20.80;99.90;;;;;;4978388;28;20445;-87
2022/06/14 12:04:57;;;;;;;0.10;0.00;;;21.20;99.90;;;;;;4988144;28;20440;-85
2022/06/14 12:07:38;;;;;;;0.10;0.00;;;21.10;99.90;;;;;;4987621;28;20463;-85
2022/06/14 12:10:42;;;;;;;0.10;0.00;;;20.70;99.90;;;;;;5046310;28;20535;-85
2022/06/14 12:13:26;;;;;;;0.10;0.00;;;20.30;99.90;;;;;;4979171;28;20486;-87
2022/06/14 12:16:07;;;;;;;0.10;0.00;;;20.90;99.90;;;;;;4982605;28;20451;-85
2022/06/14 12:18:36;;;;;;;0.10;0.00;;;21.00;99.90;;;;;;4981751;28;20857;-87
2022/06/14 12:21:10;;;;;;;0.10;0.00;;;20.70;99.90;;;;;;5052571;28;20444;-85
2022/06/14 12:24:00;;;;;;;0.10;0.00;;;20.50;99.90;;;;;;4978076;28;20459;-87
2022/06/14 12:26:45;;;;;;;0.10;0.00;;;20.10;99.90;;;;;;5068028;28;20456;-85
2022/06/14 12:29:22;;;;;;;0.10;0.00;;;20.60;99.90;;;;;;4983623;28;20985;-86
2022/06/14 12:32:30;;;;;;;0.10;0.00;;;20.30;99.90;;;;;;4987445;28;20428;-86
2022/06/14 12:35:06;;;;;;;0.10;0.00;;;20.70;99.90;;;;;;4977133;28;20516;-87
2022/06/14 12:37:48;;;;;;;0.10;0.00;;;20.90;99.90;;;;;;5050867;28;20868;-88
2022/06/14 12:40:20;;;;;;;0.10;0.00;;;20.60;99.90;;;;;;5047736;28;20444;-87
2022/06/14 12:42:58;;;;;;;0.10;0.00;;;21.20;99.90;;;;;;4975499;28;20441;-86
2022/06/14 12:45:27;;;;;;;0.10;0.00;;;21.70;99.90;;;;;;4982992;28;20448;-88
2022/06/14 12:48:17;;;;;;;0.10;0.00;;;20.50;99.90;;;;;;4984292;28;20447;-85
2022/06/14 12:50:54;;;;;;;0.10;0.00;;;20.50;99.90;;;;;;4978912;28;20687;-87
2022/06/14 12:53:40;;;;;;;0.10;0.00;;;20.20;99.90;;;;;;4980118;28;20490;-87
2022/06/14 12:56:14;;;;;;;0.10;0.00;;;19.90;99.90;;;;;;4983551;28;20979;-86
2022/06/14 12:58:52;;;;;;;0.10;0.00;;;19.60;99.90;;;;;;5053245;28;20479;-88
2022/06/14 13:01:41;;;;;;;0.10;0.00;;;19.10;99.90;;;;;;5054224;28;20835;-86
2022/06/14 13:04:21;;;;;;;0.10;0.00;;;18.90;99.90;;;;;;5048480;28;20551;-86
2022/06/14 13:07:05;;;;;;;0.10;0.10;;;19.00;99.90;;;;;;5039027;28;20488;-87
2022/06/14 13:09:43;;;;;;;0.10;0.00;;;19.70;99.90;;;;;;5046428;28;21153;-88
2022/06/14 13:12:28;;;;;;;0.10;0.00;;;20.40;99.90;;;;;;5004412;28;20443;-89
2022/06/14 13:15:17;;;;;;;0.10;0.00;;;21.70;99.90;;;;;;4978416;28;20578;-87
2022/06/14 13:17:58;;;;;;;0.10;0.00;;;22.00;99.90;;;;;;4970913;28;20445;-87
2022/06/14 13:21:09;;;;;;;0.10;0.00;;;21.60;99.90;;;;;;5048457;28;20459;-86
2022/06/14 13:23:56;;;;;;;0.10;0.00;;;20.60;99.90;;;;;;4985200;28;20504;-88
2022/06/14 13:26:28;;;;;;;0.10;0.00;;;20.30;99.90;;;;;;4993436;28;20477;-87
2022/06/14 13:29:29;;;;;;;0.10;0.00;;;20.50;99.90;;;;;;4985274;28;20459;-87
2022/06/14 13:32:25;;;;;;;0.10;0.00;;;20.40;99.90;;;;;;4987996;28;21007;-86
2022/06/14 13:34:59;;;;;;;0.10;0.00;;;20.60;99.90;;;;;;4983640;28;20578;-85
2022/06/14 13:37:32;;;;;;;0.10;0.00;;;20.60;99.90;;;;;;4985461;28;20477;-87
2022/06/14 13:40:23;;;;;;;0.10;0.00;;;20.30;99.90;;;;;;4985559;28;21026;-86
2022/06/14 13:42:59;;;;;;;0.10;0.00;;;20.10;99.90;;;;;;4979140;28;20932;-87
2022/06/14 13:45:38;;;;;;;0.10;0.00;;;19.90;99.90;;;;;;4987206;28;20448;-86
2022/06/14 13:48:26;;;;;;;0.10;0.00;;;20.00;99.90;;;;;;4983092;28;20440;-88
2022/06/14 13:50:57;;;;;;;0.10;0.00;;;19.60;99.90;;;;;;5054888;28;20460;-86
2022/06/14 13:53:31;;;;;;;0.10;0.00;;;20.10;99.90;;;;;;4982004;28;20515;-86
2022/06/14 13:56:05;;;;;;;0.10;0.00;;;20.70;99.90;;;;;;5048232;28;20495;-86
2022/06/14 13:58:46;;;;;;;0.10;0.00;;;20.60;99.90;;;;;;4981247;28;20873;-84
2022/06/14 14:01:22;;;;;;;0.10;0.00;;;20.40;99.90;;;;;;4984074;28;20452;-87